Goodfield, Illinois
Current Conditions -  °F | °C
As of 4:56 AM on Friday 31 Oct 2014 (Local Time) from KBMI Reporting Station
Light Rain Light Rain  
Wind Chill: 35°   Ceiling: 1800
Heat Index: 44°   Visibility: 9mi
Dew Point: 41°   Wind: 25mph
Humidity: 90%   Direction: 330°NNW
Pressure: 30.08"   Gusts: 33mph
Location:  40.63°N, 89.27°W
Report Text: KBMI 310956Z AUTO 33022G29KT 9SM -RA SCT010 BKN018 OVC033 07/05 A3008 RMK AO2 T00660050 RAB11E30B53 P0000 PK WND 33029/0952 SLP193
Loading
Personal Weather Stations






























Interactive Weather Map
Tropical Storm Tracking
New forecast layout! Learn more

10-Day Weather Forecast

Advertisements
Track Severe Weather on mobile